Latest Weather Observations for St Kilda Harbour RMYS

IDV60801

Issued at 12:05 am EST Friday 22 August 2014 (issued every 30 minutes, with the page automatically refreshed every 10 minutes)

About weather observations | Map of weather stations | Latest weather observations for VIC | Other Formats
Station Details ID: 086220 Name: ST KILDA HARBOUR - RMYS Lat: -37.86 Lon: 144.96 Height: 6.4 m
Data from the previous 72 hours. | See also: Recent months for locations in Victoria
Date/Time
EST
Temp
°C
App
Temp
°C
Dew
Point
Rel
Hum
%
Delta-T
°C
Wind Press
QNH
hPa
Press
MSL
hPa
Rain
since 9 am
mm
Dir
 
Spd
km/h
Gust
km/h
Spd
kts
Gust
kts
22/12:00am - - - - - NNE 7 11 4 6 - - -
 
Date/Time
EST
Temp
°C
App
Temp
°C
Dew
Point
Rel
Hum
%
Delta-T
°C
Wind Press
QNH
hPa
Press
MSL
hPa
Rain
since 9 am
mm
Dir
 
Spd
km/h
Gust
km/h
Spd
kts
Gust
kts
21/11:30pm - - - - - NNE 9 15 5 8 - - -
21/11:00pm - - - - - NE 9 15 5 8 - - -
21/10:30pm - - - - - NNE 7 9 4 5 - - -
21/10:00pm - - - - - NNE 7 9 4 5 - - -
21/09:30pm - - - - - NNE 9 9 5 5 - - -
21/09:00pm - - - - - NNE 9 11 5 6 - - -
21/08:30pm - - - - - NNE 7 11 4 6 - - -
21/08:00pm - - - - - NNE 7 11 4 6 - - -
21/07:30pm - - - - - NNE 11 13 6 7 - - -
21/07:00pm - - - - - NNE 9 13 5 7 - - -
21/06:30pm - - - - - NNE 9 13 5 7 - - -
21/06:00pm - - - - - SE 4 7 2 4 - - -
21/05:30pm - - - - - SSE 6 9 3 5 - - -
21/05:00pm - - - - - S 11 17 6 9 - - -
21/04:30pm - - - - - SSE 13 17 7 9 - - -
21/04:00pm - - - - - S 15 19 8 10 - - -
21/03:30pm - - - - - S 15 19 8 10 - - -
21/03:00pm - - - - - S 17 19 9 10 - - -
21/02:30pm - - - - - S 17 20 9 11 - - -
21/02:00pm - - - - - S 19 20 10 11 - - -
21/01:30pm - - - - - S 19 20 10 11 - - -
21/01:00pm - - - - - S 19 22 10 12 - - -
21/12:30pm - - - - - S 17 19 9 10 - - -
21/12:00pm - - - - - S 11 13 6 7 - - -
21/11:30am - - - - - SSW 9 11 5 6 - - -
21/11:00am - - - - - SSW 7 9 4 5 - - -
21/10:30am - - - - - W 6 7 3 4 - - -
21/10:00am - - - - - WSW 4 6 2 3 - - -
21/09:30am - - - - - WNW 6 7 3 4 - - -
21/09:00am - - - - - NW 6 11 3 6 - - -
21/08:30am - - - - - NW 6 7 3 4 - - -
21/08:00am - - - - - N 4 7 2 4 - - -
21/07:30am - - - - - NNE 7 9 4 5 - - -
21/07:00am - - - - - SE 2 4 1 2 - - -
21/06:30am - - - - - NE 2 4 1 2 - - -
21/06:00am - - - - - E 6 7 3 4 - - -
21/05:30am - - - - - E 6 6 3 3 - - -
21/05:00am - - - - - SSE 7 11 4 6 - - -
21/04:30am - - - - - ESE 4 4 2 2 - - -
21/04:00am - - - - - N 2 4 1 2 - - -
21/03:30am - - - - - NNE 4 6 2 3 - - -
21/03:00am - - - - - ESE 4 7 2 4 - - -
21/02:30am - - - - - ESE 7 9 4 5 - - -
21/02:00am - - - - - SSE 9 11 5 6 - - -
21/01:30am - - - - - SSE 11 13 6 7 - - -
21/01:00am - - - - - SE 9 13 5 7 - - -
21/12:30am - - - - - ESE 13 20 7 11 - - -
21/12:00am - - - - - SE 11 13 6 7 - - -
 
Date/Time
EST
Temp
°C
App
Temp
°C
Dew
Point
Rel
Hum
%
Delta-T
°C
Wind Press
QNH
hPa
Press
MSL
hPa
Rain
since 9 am
mm
Dir
 
Spd
km/h
Gust
km/h
Spd
kts
Gust
kts
20/11:30pm - - - - - SE 9 13 5 7 - - -
20/11:00pm - - - - - SE 11 15 6 8 - - -
20/10:30pm - - - - - SSE 9 11 5 6 - - -
20/10:00pm - - - - - SE 11 15 6 8 - - -
20/09:30pm - - - - - SE 11 15 6 8 - - -
20/09:00pm - - - - - SE 13 17 7 9 - - -
20/08:30pm - - - - - SSE 22 24 12 13 - - -
20/08:00pm - - - - - SSE 22 26 12 14 - - -
20/07:30pm - - - - - SSE 22 26 12 14 - - -
20/07:00pm - - - - - S 17 20 9 11 - - -
20/06:30pm - - - - - S 19 20 10 11 - - -
20/06:00pm - - - - - S 19 22 10 12 - - -
20/05:30pm - - - - - SSW 20 22 11 12 - - -
20/05:00pm - - - - - S 22 26 12 14 - - -
20/04:30pm - - - - - S 19 22 10 12 - - -
20/04:00pm - - - - - S 19 22 10 12 - - -
20/03:30pm - - - - - S 19 22 10 12 - - -
20/03:00pm - - - - - SSW 13 15 7 8 - - -
20/02:30pm - - - - - SSW 13 15 7 8 - - -
20/02:00pm - - - - - SSW 15 19 8 10 - - -
20/01:30pm - - - - - SSW 15 19 8 10 - - -
20/01:00pm - - - - - SSW 11 17 6 9 - - -
20/12:30pm - - - - - SW 6 7 3 4 - - -
20/12:00pm - - - - - SW 7 9 4 5 - - -
20/11:30am - - - - - SW 6 9 3 5 - - -
20/11:00am - - - - - SSW 11 13 6 7 - - -
20/10:30am - - - - - S 7 9 4 5 - - -
20/10:00am - - - - - SSE 7 11 4 6 - - -
20/09:30am - - - - - SSE 6 6 3 3 - - -
20/09:00am - - - - - SE 6 11 3 6 - - -
20/08:30am - - - - - SSE 7 9 4 5 - - -
20/08:00am - - - - - SSE 4 6 2 3 - - -
20/07:30am - - - - - SW 2 4 1 2 - - -
20/07:00am - - - - - SSE 2 6 1 3 - - -
20/06:30am - - - - - ENE 2 4 1 2 - - -
20/06:00am - - - - - E 6 7 3 4 - - -
20/05:30am - - - - - E 6 7 3 4 - - -
20/05:00am - - - - - E 9 11 5 6 - - -
20/04:30am - - - - - ESE 7 11 4 6 - - -
20/04:00am - - - - - SE 13 19 7 10 - - -
20/03:30am - - - - - SE 15 19 8 10 - - -
20/03:00am - - - - - S 17 22 9 12 - - -
20/02:30am - - - - - SE 11 17 6 9 - - -
20/02:00am - - - - - SSE 15 19 8 10 - - -
20/01:30am - - - - - SE 7 9 4 5 - - -
20/01:00am - - - - - SE 7 11 4 6 - - -
20/12:30am - - - - - SE 7 9 4 5 - - -
20/12:00am - - - - - E 9 13 5 7 - - -
 
Date/Time
EST
Temp
°C
App
Temp
°C
Dew
Point
Rel
Hum
%
Delta-T
°C
Wind Press
QNH
hPa
Press
MSL
hPa
Rain
since 9 am
mm
Dir
 
Spd
km/h
Gust
km/h
Spd
kts
Gust
kts
19/11:30pm - - - - - ESE 9 13 5 7 - - -
19/11:00pm - - - - - ESE 9 15 5 8 - - -
19/10:30pm - - - - - ESE 11 15 6 8 - - -
19/10:00pm - - - - - SE 15 22 8 12 - - -
19/09:30pm - - - - - SE 19 24 10 13 - - -
19/09:00pm - - - - - SE 17 22 9 12 - - -
19/08:30pm - - - - - SE 15 19 8 10 - - -
19/08:00pm - - - - - SSE 15 19 8 10 - - -
19/07:30pm - - - - - SSE 17 20 9 11 - - -
19/07:00pm - - - - - SSE 17 20 9 11 - - -
19/06:30pm - - - - - SSE 17 22 9 12 - - -
19/06:00pm - - - - - SSE 20 24 11 13 - - -
19/05:30pm - - - - - S 20 26 11 14 - - -
19/05:00pm - - - - - S 19 20 10 11 - - -
19/04:30pm - - - - - S 19 22 10 12 - - -
19/04:00pm - - - - - S 20 22 11 12 - - -
19/03:30pm - - - - - S 19 20 10 11 - - -
19/03:00pm - - - - - S 17 20 9 11 - - -
19/02:30pm - - - - - S 19 22 10 12 - - -
19/02:00pm - - - - - S 15 19 8 10 - - -
19/01:30pm - - - - - S 19 20 10 11 - - -
19/01:00pm - - - - - S 17 19 9 10 - - -
19/12:30pm - - - - - S 22 24 12 13 - - -
19/12:00pm - - - - - S 22 26 12 14 - - -
19/11:30am - - - - - SE 19 26 10 14 - - -
19/11:00am - - - - - SE 15 22 8 12 - - -
19/10:30am - - - - - SE 15 22 8 12 - - -
19/10:00am - - - - - SE 17 22 9 12 - - -
19/09:30am - - - - - ESE 17 26 9 14 - - -
19/09:00am - - - - - SE 17 22 9 12 - - -
19/08:30am - - - - - SE 13 15 7 8 - - -
19/08:00am - - - - - SSE 17 20 9 11 - - -
19/07:30am - - - - - SE 17 22 9 12 - - -
19/07:00am - - - - - ESE 19 26 10 14 - - -
19/06:30am - - - - - SE 17 24 9 13 - - -
19/06:00am - - - - - SE 13 20 7 11 - - -
19/05:30am - - - - - SE 13 19 7 10 - - -
19/05:00am - - - - - SSE 13 17 7 9 - - -
19/04:30am - - - - - S 17 19 9 10 - - -
19/04:00am - - - - - S 19 24 10 13 - - -
19/03:30am - - - - - S 17 20 9 11 - - -
19/03:00am - - - - - S 17 19 9 10 - - -
19/02:30am - - - - - S 20 26 11 14 - - -
19/02:00am - - - - - S 20 24 11 13 - - -
19/01:30am - - - - - S 17 19 9 10 - - -
19/01:00am - - - - - S 19 20 10 11 - - -
19/12:30am - - - - - SSE 17 19 9 10 - - -

Other Formats:

Comma delimited format used in spreadsheet applications
http://www.bom.gov.au/fwo/IDV60801/IDV60801.95864.axf

JavaScript Object Notation format (JSON) in row-major order
http://www.bom.gov.au/fwo/IDV60801/IDV60801.95864.json